Weather at Coast Guard Air Station San Francisco

Public forecast

Using degrees Fahrenheit for public forecast. Weather courtesy of forecast.io.

Closest aviation weather report (METAR) to Coast Guard Air Station San Francisco

Closest report is San Francisco International Airport, 1.0 nm (1.9 km) SE.

2024/05/30 18:56 (retrieved 18 minutes ago)

KSFO 301856Z 31012KT 10SM FEW200 22/11 A2998 RMK AO2 SLP150 T02170106

Closest aviation forecast (TAF) to Coast Guard Air Station San Francisco

Closest forecast is San Francisco International Airport, 1.0 nm (1.9 km) SE.

2024/05/30 18:22 (retrieved 52 minutes ago)

TAF KSFO 301720Z 3018/3124 VRB05KT P6SM SKC FM302000 28015G24KT P6SM SKC FM310500 29012KT P6SM SKC FM310800 VRB05KT P6SM SKC FM312100 26012G20KT P6SM SKC